Aeroporto :
LOGIN :

Iscrizione | Disclaimer

   EN    FR    IT 

 










Sommario :    VFR   VFR Marginale   IFR   IFR Intensivo   IFR Molto Intensivo
Visibilità : 
Base nubi : 
>= 8 km
>= 3000ft
5 / 8 km
1000 / 3000 ft
1500m / 5 km
500 / 1000 ft
800 / 1500m
200 / 500 ft
< 800m
< 200 ft
Simboli :   Temporali  Nebbia  Neve Forte  Precipitazioni Forti  Vento > 20 kt
SIGMETs :   Varie  Temporali  Ghiacco  Turbolenza  Onda orograficha  Ceneri Vulcaniche







- Altitudine del aeroporto : 239 ft
- Codice IATA : VRN


LIPX - Villafranca Int. Verona

ULTIMO METAR :
  • 161320Z 10004KT 070V140 9999 BKN060 21/12 Q1020

METARs OBSOLETI :
  • 161250Z 08004KT 030V150 9999 BKN060 21/12 Q1020
  • 161220Z 08005KT 040V100 9999 SCT060 21/11 Q1020
  • 161150Z 07004KT 010V130 9999 SCT070 21/11 Q1020
  • 161120Z VRB02KT 9999 BKN070 21/11 Q1021
  • 161050Z 10003KT 9999 SCT080 20/11 Q1021

TAF TAF LIPX
Valido dal 16 a 12 ore il 16 a 21 ore UTC


161100Z 1612/1621 VRB05KT 9999 SCT050
Nessun NOTAM noto per questo aeroporto.



MetMap, La meteo Aeronautica in un colpo d'occhio ! - Copyright ORBIFLY Dicembre 2007 - Disclaimer

ORBIFLY MET'MAP TEAM :

Programmazione e sviluppo : Alexandra Zaïnal
Concezione e sviluppo : Baudouin d'Aumeries
Co-Programmazione e sviluppo : Marc-Olivier Méhu
Supporto tecnico e logistico : Manuel Goepfert
Aiuto per la traduzione : Arnaldo La Scala

Contatto : metmap@orbifly.com




FONTI E CREDITI :

   NOAA